Time;durP1;ratioP1;P1;durP2;ratioP2;P2;SDS_P1;SDS_P2;PMS_P1;PMS_P2;Temp;Humidity;BMP_temperature;BMP_pressure;BME280_temperature;BME280_humidity;BME280_pressure;Samples;Min_cycle;Max_cycle;Signal;HPM_P1;HPM_P2
2022/10/30 00:00:24;;;;;;;41.13;24.42;;;;;;;12.68;100.00;101608.97;5032565;28;20543;-46
2022/10/30 00:02:49;;;;;;;38.85;24.08;;;;;;;12.65;100.00;101606.38;5049514;28;20202;-48
2022/10/30 00:05:15;;;;;;;38.92;25.15;;;;;;;12.60;100.00;101602.97;5052277;28;20257;-44
2022/10/30 00:07:41;;;;;;;29.05;20.63;;;;;;;12.63;100.00;101610.91;5048168;28;20195;-44
2022/10/30 00:10:08;;;;;;;32.78;21.48;;;;;;;12.63;100.00;101599.28;5031954;28;20636;-42
2022/10/30 00:12:33;;;;;;;37.42;21.95;;;;;;;12.55;100.00;101596.84;5032243;28;20176;-43
2022/10/30 00:14:59;;;;;;;34.00;21.83;;;;;;;12.37;100.00;101592.97;5031543;28;20198;-46
2022/10/30 00:17:24;;;;;;;31.63;21.55;;;;;;;12.33;100.00;101600.28;5032067;28;20207;-46
2022/10/30 00:19:50;;;;;;;28.02;19.15;;;;;;;12.35;100.00;101590.38;5032269;28;20225;-49
2022/10/30 00:22:15;;;;;;;28.25;18.70;;;;;;;12.32;100.00;101606.56;5031801;28;20170;-44
2022/10/30 00:24:41;;;;;;;25.67;16.98;;;;;;;12.31;100.00;101601.25;5030632;28;20203;-45
2022/10/30 00:27:06;;;;;;;25.98;17.58;;;;;;;12.30;100.00;101595.00;5032265;28;20191;-49
2022/10/30 00:29:32;;;;;;;23.55;18.02;;;;;;;12.25;100.00;101579.97;5020261;28;20648;-48
2022/10/30 00:31:57;;;;;;;22.90;18.30;;;;;;;12.13;100.00;101584.81;5044903;28;20184;-46
2022/10/30 00:34:23;;;;;;;24.27;16.77;;;;;;;12.18;100.00;101597.19;5022820;28;20238;-47
2022/10/30 00:36:48;;;;;;;20.42;17.00;;;;;;;12.09;100.00;101595.69;5024401;28;20190;-48
2022/10/30 00:39:15;;;;;;;22.05;17.20;;;;;;;12.08;100.00;101594.81;5031546;28;20222;-46
2022/10/30 00:41:40;;;;;;;23.17;16.08;;;;;;;12.03;100.00;101601.28;5033176;28;20219;-49
2022/10/30 00:44:43;;;;;;;24.45;17.13;;;;;;;11.97;100.00;101601.47;5029206;28;20294;-48
2022/10/30 00:47:22;;;;;;;25.88;18.42;;;;;;;11.90;100.00;101598.09;5030817;28;20233;-48
2022/10/30 00:50:12;;;;;;;21.10;16.60;;;;;;;11.86;100.00;101597.28;5025966;28;20195;-47
2022/10/30 00:52:51;;;;;;;20.25;15.20;;;;;;;11.88;100.00;101584.72;5035719;28;20194;-49
2022/10/30 00:55:21;;;;;;;22.27;15.85;;;;;;;11.90;100.00;101588.22;5032923;28;20192;-48
2022/10/30 00:57:49;;;;;;;20.45;15.75;;;;;;;11.80;100.00;101584.03;5027485;28;20180;-47
2022/10/30 01:00:19;;;;;;;21.27;16.20;;;;;;;11.85;100.00;101591.94;5017116;28;20192;-48
2022/10/30 01:02:44;;;;;;;19.88;15.38;;;;;;;11.77;100.00;101586.81;5025104;28;20199;-49
2022/10/30 01:05:15;;;;;;;20.52;14.88;;;;;;;11.80;100.00;101584.03;5036005;28;20586;-45
2022/10/30 01:07:41;;;;;;;23.45;17.00;;;;;;;11.66;100.00;101588.97;5029887;28;20234;-47
2022/10/30 01:10:09;;;;;;;25.65;18.45;;;;;;;11.48;100.00;101585.91;5040546;28;20183;-47
2022/10/30 01:12:40;;;;;;;19.63;15.80;;;;;;;11.59;100.00;101579.31;5020759;28;20171;-49
2022/10/30 01:15:12;;;;;;;23.58;18.13;;;;;;;11.33;100.00;101578.31;5010544;28;20215;-48
2022/10/30 01:17:52;;;;;;;23.65;16.08;;;;;;;11.37;100.00;101573.72;5028946;28;20191;-49
2022/10/30 01:20:50;;;;;;;23.48;17.67;;;;;;;11.29;100.00;101574.84;5030129;28;20269;-46
2022/10/30 01:23:38;;;;;;;20.70;16.15;;;;;;;11.35;100.00;101565.75;4986955;28;20235;-47
2022/10/30 01:26:25;;;;;;;22.20;16.83;;;;;;;11.36;100.00;101572.84;5037490;28;20263;-47
2022/10/30 01:29:21;;;;;;;24.10;17.55;;;;;;;11.28;100.00;101569.50;5037548;28;20192;-47
2022/10/30 01:32:21;;;;;;;19.17;14.63;;;;;;;11.38;100.00;101572.81;5013788;28;20187;-47
2022/10/30 01:35:35;;;;;;;28.48;17.70;;;;;;;11.26;100.00;101576.72;5028590;28;20314;-47
2022/10/30 01:38:22;;;;;;;21.38;17.08;;;;;;;11.20;100.00;101571.56;5022745;28;20242;-47
2022/10/30 01:40:51;;;;;;;21.58;16.38;;;;;;;11.28;100.00;101572.19;5019616;28;20188;-49
2022/10/30 01:43:16;;;;;;;19.73;15.43;;;;;;;11.31;100.00;101585.53;5049902;28;20202;-45
2022/10/30 01:45:51;;;;;;;24.60;17.10;;;;;;;11.25;100.00;101566.94;5028985;28;20188;-45
2022/10/30 01:49:03;;;;;;;19.80;15.30;;;;;;;11.26;100.00;101566.91;5030064;28;20167;-45
2022/10/30 01:51:58;;;;;;;24.92;17.05;;;;;;;11.34;100.00;101563.97;5040924;28;20214;-44
2022/10/30 01:54:45;;;;;;;19.70;15.52;;;;;;;11.34;100.00;101564.84;5031790;28;20549;-46
2022/10/30 01:57:15;;;;;;;21.10;15.55;;;;;;;11.30;100.00;101552.47;5048876;28;20230;-47
2022/10/30 01:59:52;;;;;;;25.05;17.05;;;;;;;11.34;100.00;101559.47;5031943;28;20215;-45
2022/10/30 02:02:19;;;;;;;31.27;21.48;;;;;;;11.43;100.00;101563.69;5031088;28;20175;-44
2022/10/30 02:04:45;;;;;;;28.17;20.92;;;;;;;11.53;100.00;101565.19;5012181;28;20284;-46
2022/10/30 02:07:11;;;;;;;30.55;22.85;;;;;;;11.54;100.00;101560.69;5018133;28;20183;-45
2022/10/30 02:09:43;;;;;;;31.50;22.48;;;;;;;11.52;100.00;101550.00;5020181;28;20168;-45
2022/10/30 02:12:12;;;;;;;40.75;25.33;;;;;;;11.58;100.00;101562.34;5011977;28;20192;-44
2022/10/30 02:14:47;;;;;;;39.03;25.20;;;;;;;11.69;100.00;101559.34;5011946;28;20271;-48
2022/10/30 02:17:13;;;;;;;38.05;27.45;;;;;;;11.82;100.00;101565.19;5027670;28;20189;-46
2022/10/30 02:19:40;;;;;;;39.38;26.05;;;;;;;11.77;100.00;101553.75;5030407;28;20187;-45
2022/10/30 02:22:05;;;;;;;37.42;26.33;;;;;;;11.76;100.00;101558.22;5036580;28;20191;-45
2022/10/30 02:24:32;;;;;;;35.65;26.60;;;;;;;11.78;100.00;101556.34;5026970;28;20243;-45
2022/10/30 02:26:58;;;;;;;39.13;28.00;;;;;;;11.74;100.00;101554.69;5039117;28;20206;-45
2022/10/30 02:29:24;;;;;;;47.22;30.90;;;;;;;11.83;100.00;101557.09;5038950;28;20269;-45
2022/10/30 02:31:50;;;;;;;42.65;28.80;;;;;;;11.79;100.00;101547.38;5039829;28;20183;-45
2022/10/30 02:34:15;;;;;;;43.10;29.75;;;;;;;11.84;100.00;101560.66;5024095;28;20718;-45
2022/10/30 02:36:42;;;;;;;44.33;28.38;;;;;;;11.85;100.00;101544.50;5021871;28;20191;-44
2022/10/30 02:39:07;;;;;;;35.30;24.33;;;;;;;11.80;100.00;101543.75;5031089;28;20566;-44
2022/10/30 02:41:34;;;;;;;34.90;27.10;;;;;;;11.80;100.00;101538.38;5018795;28;20272;-43
2022/10/30 02:44:00;;;;;;;38.85;27.40;;;;;;;11.80;100.00;101545.56;5027157;28;20845;-47
2022/10/30 02:46:26;;;;;;;44.20;27.48;;;;;;;11.71;100.00;101547.63;5027537;28;20188;-45
2022/10/30 02:48:52;;;;;;;39.63;26.50;;;;;;;11.77;100.00;101554.63;5028231;28;20183;-45
2022/10/30 02:51:17;;;;;;;39.55;28.27;;;;;;;11.82;100.00;101557.16;5024871;28;20191;-49
2022/10/30 02:53:43;;;;;;;38.60;26.15;;;;;;;11.74;100.00;101552.00;5038675;28;20199;-43
2022/10/30 02:56:12;;;;;;;44.85;30.98;;;;;;;11.88;100.00;101554.31;5027511;28;20250;-47
2022/10/30 02:58:39;;;;;;;50.70;33.05;;;;;;;11.87;100.00;101550.72;5011798;28;20263;-44
2022/10/30 03:01:15;;;;;;;44.83;30.77;;;;;;;11.90;100.00;101541.72;5011386;28;20605;-46
2022/10/30 03:03:42;;;;;;;48.33;31.23;;;;;;;11.88;100.00;101544.44;5011640;28;20864;-44
2022/10/30 03:06:10;;;;;;;43.72;28.50;;;;;;;11.78;100.00;101532.19;5031552;28;20209;-46
2022/10/30 03:08:36;;;;;;;32.95;25.40;;;;;;;11.63;100.00;101538.03;5031293;28;20191;-44
2022/10/30 03:11:15;;;;;;;40.65;26.77;;;;;;;11.65;100.00;101529.00;5049239;28;20191;-44
2022/10/30 03:13:43;;;;;;;54.25;32.17;;;;;;;11.72;100.00;101537.78;5045137;28;20200;-48
2022/10/30 03:16:10;;;;;;;43.42;29.13;;;;;;;11.73;100.00;101544.91;5033631;28;20188;-49
2022/10/30 03:18:36;;;;;;;48.47;31.85;;;;;;;11.55;100.00;101551.72;5035083;28;20271;-50
2022/10/30 03:21:09;;;;;;;39.85;27.20;;;;;;;11.71;100.00;101544.06;5036267;28;20554;-49
2022/10/30 03:23:35;;;;;;;36.55;28.08;;;;;;;11.72;100.00;101549.38;5022364;28;20203;-50
2022/10/30 03:26:02;;;;;;;44.92;28.05;;;;;;;11.73;100.00;101543.06;5012862;28;20275;-48
2022/10/30 03:28:31;;;;;;;28.80;23.50;;;;;;;11.57;100.00;101544.50;5035949;28;20682;-49
2022/10/30 03:31:02;;;;;;;37.67;27.63;;;;;;;11.46;100.00;101549.31;5034676;28;20489;-46
2022/10/30 03:33:28;;;;;;;31.52;24.75;;;;;;;11.48;100.00;101542.09;5013671;28;20294;-47
2022/10/30 03:35:54;;;;;;;32.58;23.60;;;;;;;11.49;100.00;101546.53;5024894;28;20229;-45
2022/10/30 03:38:19;;;;;;;34.65;25.40;;;;;;;11.36;100.00;101551.38;5039849;28;20656;-47
2022/10/30 03:40:45;;;;;;;43.63;30.08;;;;;;;11.27;100.00;101540.94;5025190;28;20338;-50
2022/10/30 03:43:11;;;;;;;48.53;32.92;;;;;;;11.47;100.00;101532.28;5026993;28;20273;-49
2022/10/30 03:45:36;;;;;;;42.15;30.75;;;;;;;11.52;100.00;101538.38;5019881;28;20204;-43
2022/10/30 03:48:05;;;;;;;43.72;31.33;;;;;;;11.43;100.00;101535.97;5041407;28;20196;-45
2022/10/30 03:50:32;;;;;;;49.65;31.88;;;;;;;11.39;100.00;101537.00;5030718;28;20187;-42
2022/10/30 03:52:57;;;;;;;46.58;32.72;;;;;;;11.41;100.00;101537.81;5028392;28;20172;-49
2022/10/30 03:55:24;;;;;;;42.53;30.00;;;;;;;11.32;100.00;101539.00;5030518;28;20187;-44
2022/10/30 03:57:50;;;;;;;54.95;34.55;;;;;;;11.43;100.00;101528.81;5029546;28;20194;-47
2022/10/30 04:00:17;;;;;;;55.63;32.75;;;;;;;11.38;100.00;101535.25;5023447;28;20269;-46
2022/10/30 04:02:58;;;;;;;45.30;30.88;;;;;;;11.35;100.00;101530.88;5019976;28;20640;-46
2022/10/30 04:05:26;;;;;;;51.72;32.28;;;;;;;11.23;100.00;101533.91;5025196;28;20187;-44
2022/10/30 04:07:56;;;;;;;45.72;31.23;;;;;;;11.36;100.00;101537.09;5038951;28;20175;-45
2022/10/30 04:10:23;;;;;;;50.60;34.85;;;;;;;11.39;100.00;101540.59;5022478;28;20180;-44
2022/10/30 04:12:49;;;;;;;59.17;35.72;;;;;;;11.41;100.00;101541.38;5026419;28;20182;-48
2022/10/30 04:15:15;;;;;;;52.20;34.17;;;;;;;11.34;100.00;101542.50;5024041;28;20698;-47
2022/10/30 04:17:47;;;;;;;48.10;33.50;;;;;;;11.41;100.00;101541.38;5031641;28;20283;-47
2022/10/30 04:20:12;;;;;;;47.88;32.30;;;;;;;11.36;100.00;101537.09;5040170;28;20191;-46
2022/10/30 04:22:38;;;;;;;49.72;33.45;;;;;;;11.45;100.00;101545.72;5022367;28;20246;-44
2022/10/30 04:25:04;;;;;;;60.08;37.28;;;;;;;11.46;100.00;101550.19;5029903;28;20294;-43
2022/10/30 04:27:38;;;;;;;62.95;36.92;;;;;;;11.62;100.00;101549.72;5018702;28;20203;-44
2022/10/30 04:30:04;;;;;;;55.75;35.38;;;;;;;11.59;100.00;101558.75;5044816;28;20175;-43
2022/10/30 04:32:30;;;;;;;59.83;38.03;;;;;;;11.62;100.00;101555.09;5022117;28;20215;-45
2022/10/30 04:34:56;;;;;;;58.17;38.22;;;;;;;11.67;100.00;101564.75;5039882;28;20212;-45
2022/10/30 04:37:23;;;;;;;62.55;39.28;;;;;;;11.68;100.00;101560.28;5023755;28;20234;-46
2022/10/30 04:39:49;;;;;;;60.58;40.33;;;;;;;11.67;100.00;101553.13;5038446;28;20187;-47
2022/10/30 04:42:20;;;;;;;66.38;40.80;;;;;;;11.72;100.00;101545.84;5036354;28;20187;-46
2022/10/30 04:44:45;;;;;;;65.57;42.00;;;;;;;11.75;100.00;101549.28;5040789;28;20730;-50
2022/10/30 04:47:11;;;;;;;69.30;44.13;;;;;;;11.70;100.00;101536.94;5037297;28;20185;-45
2022/10/30 04:49:36;;;;;;;72.30;44.15;;;;;;;11.74;100.00;101543.94;5023986;28;20268;-45
2022/10/30 04:52:02;;;;;;;65.97;43.40;;;;;;;11.73;100.00;101537.72;5039193;28;20176;-47
2022/10/30 04:54:27;;;;;;;73.32;44.35;;;;;;;11.70;100.00;101536.94;5042841;28;20214;-49
2022/10/30 04:56:53;;;;;;;69.55;43.25;;;;;;;11.71;100.00;101544.06;5036775;28;20198;-44
2022/10/30 04:59:18;;;;;;;77.05;45.30;;;;;;;11.70;100.00;101553.06;5023612;28;20183;-46
2022/10/30 05:01:44;;;;;;;76.18;45.10;;;;;;;11.66;100.00;101546.03;5036406;28;20316;-47
2022/10/30 05:04:10;;;;;;;79.75;45.47;;;;;;;11.63;100.00;101540.72;5022548;28;20539;-50
2022/10/30 05:06:37;;;;;;;79.57;45.42;;;;;;;11.64;100.00;101545.19;5028819;28;20674;-45
2022/10/30 05:09:03;;;;;;;70.93;43.50;;;;;;;11.62;100.00;101542.53;5020961;28;20184;-46
2022/10/30 05:11:37;;;;;;;70.80;43.38;;;;;;;11.59;100.00;101549.81;5018998;28;20187;-46
2022/10/30 05:14:03;;;;;;;61.15;43.42;;;;;;;11.61;100.00;101547.94;5036443;28;20200;-46
2022/10/30 05:16:28;;;;;;;73.13;43.88;;;;;;;11.53;100.00;101540.16;5030928;28;20644;-45
2022/10/30 05:18:56;;;;;;;71.85;43.88;;;;;;;11.49;100.00;101547.41;5030429;28;20191;-44
2022/10/30 05:21:21;;;;;;;66.00;42.67;;;;;;;11.48;100.00;101544.78;5039702;28;20195;-47
2022/10/30 05:23:47;;;;;;;66.00;41.92;;;;;;;11.51;100.00;101544.69;5029725;28;20245;-48
2022/10/30 05:26:13;;;;;;;72.07;43.80;;;;;;;11.49;100.00;101551.91;5023295;28;20195;-46
2022/10/30 05:28:39;;;;;;;67.65;40.47;;;;;;;11.48;100.00;101542.09;5011249;28;20207;-45
2022/10/30 05:31:05;;;;;;;67.38;43.80;;;;;;;11.44;100.00;101552.03;5029807;28;20184;-49
2022/10/30 05:33:56;;;;;;;65.90;41.55;;;;;;;11.41;100.00;101541.38;5038018;28;20247;-45
2022/10/30 05:36:23;;;;;;;72.95;44.85;;;;;;;11.38;100.00;101544.16;5041457;28;20617;-51
2022/10/30 05:38:49;;;;;;;62.17;42.03;;;;;;;11.38;100.00;101541.50;5038484;28;20214;-45
2022/10/30 05:41:25;;;;;;;68.03;43.83;;;;;;;11.32;100.00;101553.28;5024961;28;20180;-45
2022/10/30 05:43:51;;;;;;;64.32;41.35;;;;;;;11.32;100.00;101537.16;5028051;28;20246;-49
2022/10/30 05:46:17;;;;;;;71.72;42.97;;;;;;;11.29;100.00;101550.69;5033660;28;20184;-46
2022/10/30 05:48:45;;;;;;;64.40;40.65;;;;;;;11.30;100.00;101539.06;5032759;28;20184;-46
2022/10/30 05:51:10;;;;;;;65.60;42.30;;;;;;;11.27;100.00;101538.25;5028721;28;20188;-46
2022/10/30 05:53:39;;;;;;;62.63;41.88;;;;;;;11.25;100.00;101543.66;5030629;28;20696;-46
2022/10/30 05:56:05;;;;;;;71.05;42.55;;;;;;;11.25;100.00;101549.03;5035701;28;20187;-45
2022/10/30 05:58:33;;;;;;;64.78;41.78;;;;;;;11.22;100.00;101557.16;5035331;28;20199;-45
2022/10/30 06:01:05;;;;;;;64.15;41.90;;;;;;;11.19;100.00;101551.88;5027970;28;20633;-46
2022/10/30 06:03:40;;;;;;;60.00;41.55;;;;;;;11.20;100.00;101558.16;5026641;28;20398;-45
2022/10/30 06:06:06;;;;;;;60.35;40.60;;;;;;;11.14;100.00;101565.44;5035223;28;20188;-47
2022/10/30 06:08:32;;;;;;;59.03;40.53;;;;;;;11.16;100.00;101561.84;5027443;28;20187;-45
2022/10/30 06:11:01;;;;;;;60.00;39.13;;;;;;;11.19;100.00;101557.25;5028792;28;20267;-45
2022/10/30 06:13:39;;;;;;;49.80;36.40;;;;;;;11.20;100.00;101558.16;5037690;28;20625;-47
2022/10/30 06:16:08;;;;;;;57.90;38.95;;;;;;;11.19;100.00;101567.97;5030372;28;20603;-48
2022/10/30 06:18:52;;;;;;;55.88;37.95;;;;;;;11.20;100.00;101567.06;5028778;28;20880;-46
2022/10/30 06:21:18;;;;;;;44.85;33.25;;;;;;;11.23;100.00;101556.22;5022311;28;20301;-45
2022/10/30 06:24:19;;;;;;;56.95;37.38;;;;;;;11.17;100.00;101564.44;4968556;28;20222;-46
2022/10/30 06:27:02;;;;;;;55.92;35.78;;;;;;;11.21;100.00;101559.88;5028988;28;20218;-45
2022/10/30 06:29:28;;;;;;;51.20;36.15;;;;;;;11.22;100.00;101558.97;5023485;28;20203;-45
2022/10/30 06:31:54;;;;;;;48.42;33.28;;;;;;;11.23;100.00;101561.59;5027837;28;20180;-46
2022/10/30 06:34:19;;;;;;;48.20;33.85;;;;;;;11.23;100.00;101566.97;5025371;28;20659;-51
2022/10/30 06:36:45;;;;;;;42.83;30.55;;;;;;;11.29;100.00;101560.56;5039996;28;20266;-46
2022/10/30 06:39:10;;;;;;;46.90;31.95;;;;;;;11.26;100.00;101565.97;5024329;28;20202;-45
2022/10/30 06:41:43;;;;;;;47.60;31.92;;;;;;;11.29;100.00;101566.78;5029468;28;20289;-45
2022/10/30 06:44:27;;;;;;;45.08;32.08;;;;;;;11.38;100.00;101564.75;5039758;28;20357;-45
2022/10/30 06:46:53;;;;;;;48.30;32.42;;;;;;;11.37;100.00;101561.22;5020243;28;20278;-45
2022/10/30 06:49:19;;;;;;;44.05;31.42;;;;;;;11.43;100.00;101562.81;5028431;28;20274;-45
2022/10/30 06:51:47;;;;;;;42.00;30.13;;;;;;;11.49;100.00;101562.63;5019248;28;20559;-46
2022/10/30 06:54:13;;;;;;;46.67;31.38;;;;;;;11.53;100.00;101572.34;5034715;28;20200;-45
2022/10/30 06:56:38;;;;;;;42.85;28.70;;;;;;;11.57;100.00;101565.06;5039470;28;20188;-47
2022/10/30 06:59:06;;;;;;;38.05;28.33;;;;;;;11.59;100.00;101571.28;5027226;28;20187;-50
2022/10/30 07:01:51;;;;;;;38.00;28.58;;;;;;;11.66;100.00;101563.00;5035227;28;20191;-45
2022/10/30 07:04:21;;;;;;;45.10;28.73;;;;;;;11.68;100.00;101569.19;5033206;28;20525;-46
2022/10/30 07:06:47;;;;;;;38.50;27.33;;;;;;;11.70;100.00;101570.03;5023997;28;20202;-45
2022/10/30 07:09:12;;;;;;;35.72;26.50;;;;;;;11.73;100.00;101574.44;5041091;28;20186;-44
2022/10/30 07:11:41;;;;;;;36.33;25.70;;;;;;;11.85;100.00;101578.50;5022561;28;20271;-48
2022/10/30 07:14:26;;;;;;;35.42;24.40;;;;;;;11.88;100.00;101568.59;5040039;28;20215;-43
2022/10/30 07:16:57;;;;;;;35.03;24.75;;;;;;;11.93;100.00;101574.69;5029031;28;20287;-45
2022/10/30 07:19:22;;;;;;;29.17;23.55;;;;;;;11.98;100.00;101573.69;5025172;28;20283;-44
2022/10/30 07:21:48;;;;;;;33.05;25.80;;;;;;;12.00;100.00;101566.44;5003503;28;20787;-45
2022/10/30 07:24:15;;;;;;;34.28;24.02;;;;;;;12.03;100.00;101563.69;5025101;28;20207;-45
2022/10/30 07:27:00;;;;;;;33.83;23.10;;;;;;;12.06;100.00;101572.50;5038170;28;20212;-44
2022/10/30 07:29:49;;;;;;;32.05;22.98;;;;;;;12.09;100.00;101575.09;5033741;28;20203;-43
2022/10/30 07:32:24;;;;;;;32.30;22.35;;;;;;;12.08;100.00;101565.28;5015631;28;20193;-44
2022/10/30 07:35:11;;;;;;;28.98;21.02;;;;;;;12.14;100.00;101566.88;5041884;28;20269;-44
2022/10/30 07:38:13;;;;;;;29.70;21.50;;;;;;;12.09;100.00;101569.72;5039467;28;20377;-43
2022/10/30 07:41:01;;;;;;;34.75;21.52;;;;;;;12.12;100.00;101576.81;5032067;28;20196;-41
2022/10/30 07:43:40;;;;;;;31.13;21.42;;;;;;;12.06;100.00;101580.56;5031219;28;20208;-43
2022/10/30 07:46:24;;;;;;;30.20;21.17;;;;;;;12.09;100.00;101576.88;5032768;28;20182;-42
2022/10/30 07:49:07;;;;;;;28.35;18.90;;;;;;;12.15;100.00;101577.56;5032784;28;20273;-41
2022/10/30 07:51:52;;;;;;;32.70;20.58;;;;;;;12.28;100.00;101571.78;5031007;28;20249;-45
2022/10/30 07:54:18;;;;;;;28.52;20.08;;;;;;;12.33;100.00;101584.16;5033901;28;20199;-42
2022/10/30 07:56:43;;;;;;;26.52;18.08;;;;;;;12.45;100.00;101576.59;5034418;28;20276;-40
2022/10/30 07:59:27;;;;;;;27.65;19.33;;;;;;;12.49;100.00;101576.44;5032711;28;20733;-41
2022/10/30 08:02:11;;;;;;;30.48;19.77;;;;;;;12.58;100.00;101583.31;5043465;28;20292;-41
2022/10/30 08:04:57;;;;;;;27.55;18.95;;;;;;;12.83;100.00;101579.75;5041589;28;20251;-40
2022/10/30 08:07:39;;;;;;;23.48;19.35;;;;;;;13.04;100.00;101579.00;5038907;28;20199;-42
2022/10/30 08:10:06;;;;;;;27.52;18.80;;;;;;;13.15;100.00;101568.72;5031483;28;20172;-43
2022/10/30 08:12:33;;;;;;;25.48;17.75;;;;;;;13.18;100.00;101565.03;5014983;28;20184;-40
2022/10/30 08:14:59;;;;;;;24.35;16.38;;;;;;;13.30;100.00;101552.97;5014685;28;20200;-43
2022/10/30 08:17:25;;;;;;;25.63;16.38;;;;;;;13.42;100.00;101552.47;4998576;28;20203;-42
2022/10/30 08:19:50;;;;;;;25.13;16.33;;;;;;;13.46;100.00;101546.03;5031229;28;20641;-39
2022/10/30 08:22:16;;;;;;;24.20;15.73;;;;;;;13.55;100.00;101542.13;5031096;28;20184;-41
2022/10/30 08:24:46;;;;;;;20.15;15.57;;;;;;;13.68;100.00;101542.50;5030819;28;20894;-41
2022/10/30 08:27:12;;;;;;;16.75;14.93;;;;;;;13.69;100.00;101541.59;5014633;28;20188;-41
2022/10/30 08:29:38;;;;;;;21.35;15.48;;;;;;;13.90;100.00;101548.78;5032524;28;20259;-41
2022/10/30 08:32:04;;;;;;;17.00;13.95;;;;;;;14.11;100.00;101554.25;5014066;28;20172;-41
2022/10/30 08:35:02;;;;;;;21.13;14.55;;;;;;;13.96;100.00;101548.53;4998534;28;20569;-41
2022/10/30 08:37:28;;;;;;;22.98;15.05;;;;;;;13.85;100.00;101529.25;5013988;28;20640;-42
2022/10/30 08:39:54;;;;;;;21.75;15.15;;;;;;;13.94;100.00;101536.06;5014215;28;20317;-40
2022/10/30 08:42:34;;;;;;;19.48;13.85;;;;;;;13.94;100.00;101528.88;4999610;28;20186;-42
2022/10/30 08:45:05;;;;;;;22.98;14.10;;;;;;;13.88;100.00;101522.84;5014301;28;20196;-42
2022/10/30 08:47:58;;;;;;;23.65;14.02;;;;;;;13.86;100.00;101525.59;5001388;28;20219;-42
2022/10/30 08:50:26;;;;;;;21.45;15.27;;;;;;;13.95;100.00;101532.44;5030764;28;20180;-43
2022/10/30 08:52:52;;;;;;;20.38;13.90;;;;;;;13.94;100.00;101520.78;5014342;28;20222;-43
2022/10/30 08:55:17;;;;;;;25.92;15.40;;;;;;;14.05;100.00;101511.38;5031896;28;20255;-40
2022/10/30 08:57:43;;;;;;;19.20;14.88;;;;;;;14.14;100.00;101516.38;5032026;28;20518;-42
2022/10/30 09:00:08;;;;;;;27.58;14.35;;;;;;;14.16;100.00;101519.91;5052180;28;20675;-41
2022/10/30 09:02:53;;;;;;;20.48;13.68;;;;;;;14.18;100.00;101529.66;5051917;28;20210;-41
2022/10/30 09:05:37;;;;;;;19.77;13.65;;;;;;;14.18;100.00;101515.31;5051707;28;20267;-42
2022/10/30 09:08:22;;;;;;;21.88;14.23;;;;;;;14.09;100.00;101519.28;5050600;28;20222;-40
2022/10/30 09:11:04;;;;;;;18.38;12.88;;;;;;;14.18;100.00;101516.19;5033729;28;20209;-41
2022/10/30 09:13:32;;;;;;;26.35;14.45;;;;;;;14.13;100.00;101520.03;5033601;28;20201;-42
2022/10/30 09:16:02;;;;;;;21.13;14.30;;;;;;;14.17;100.00;101521.66;5032081;28;20211;-43
2022/10/30 09:18:31;;;;;;;25.83;15.20;;;;;;;14.21;100.00;101521.47;5030741;28;20206;-44
2022/10/30 09:20:57;;;;;;;22.85;14.73;;;;;;;14.25;100.00;101522.19;5026397;28;20235;-44
2022/10/30 09:23:23;;;;;;;21.15;15.02;;;;;;;14.48;100.00;101523.03;5021941;28;20212;-45
2022/10/30 09:25:58;;;;;;;26.85;15.40;;;;;;;14.67;100.00;101515.94;5030721;28;20274;-44
2022/10/30 09:28:37;;;;;;;21.55;14.30;;;;;;;14.91;100.00;101521.16;5024612;28;20576;-44
2022/10/30 09:31:34;;;;;;;23.60;13.93;;;;;;;15.03;100.00;101516.06;5041132;28;20191;-45
2022/10/30 09:34:02;;;;;;;22.88;13.75;;;;;;;15.24;100.00;101516.91;5028165;28;20640;-44
2022/10/30 09:36:38;;;;;;;26.85;14.10;;;;;;;15.43;100.00;101507.94;5047628;28;20190;-45
2022/10/30 09:39:04;;;;;;;24.35;13.77;;;;;;;15.49;100.00;101510.34;5028394;28;20184;-44
2022/10/30 09:42:01;;;;;;;22.80;13.27;;;;;;;15.52;100.00;101514.72;5026100;28;20187;-44
2022/10/30 09:44:41;;;;;;;17.63;13.18;;;;;;;15.60;100.00;101518.81;5004733;28;20280;-41
2022/10/30 09:47:19;;;;;;;19.00;13.10;;;;;;;15.70;100.00;101516.56;5026669;28;20187;-48
2022/10/30 09:50:00;;;;;;;21.80;14.32;;;;;;;15.79;100.00;101516.13;5030064;28;20197;-47
2022/10/30 09:52:44;;;;;;;21.23;13.00;;;;;;;15.98;100.00;101516.09;5028464;28;20266;-46
2022/10/30 09:55:40;;;;;;;30.08;12.55;;;;;;;16.06;100.00;101518.41;5029224;28;20250;-45
2022/10/30 09:58:37;;;;;;;20.30;13.13;;;;;;;16.19;100.00;101518.66;5017681;28;20199;-48
2022/10/30 10:01:25;;;;;;;23.92;13.75;;;;;;;16.24;100.00;101527.41;5003726;28;20191;-49
2022/10/30 10:04:27;;;;;;;23.80;13.80;;;;;;;16.35;100.00;101519.63;5035138;28;20625;-47
2022/10/30 10:07:22;;;;;;;18.58;12.85;;;;;;;16.28;100.00;101523.59;4998002;28;20571;-46
2022/10/30 10:10:06;;;;;;;25.88;13.10;;;;;;;16.22;100.00;101523.91;5021108;28;20195;-47
2022/10/30 10:12:52;;;;;;;19.88;12.02;;;;;;;16.33;100.00;101526.06;5017700;28;20183;-48
2022/10/30 10:15:39;;;;;;;26.55;14.32;;;;;;;16.36;100.00;101515.97;5035722;28;20258;-49
2022/10/30 10:18:19;;;;;;;18.15;11.90;;;;;;;16.61;100.00;101517.41;5034413;28;20175;-45
2022/10/30 10:20:49;;;;;;;26.10;12.55;;;;;;;16.65;100.00;101506.31;5036492;28;20195;-48
2022/10/30 10:23:31;;;;;;;21.75;12.02;;;;;;;16.74;100.00;101506.81;5039643;28;20207;-48
2022/10/30 10:26:01;;;;;;;20.60;12.48;;;;;;;16.74;100.00;101506.81;5030665;28;20362;-47
2022/10/30 10:28:44;;;;;;;21.80;13.82;;;;;;;16.84;100.00;101510.81;5035097;28;20547;-48
2022/10/30 10:31:47;;;;;;;18.88;11.48;;;;;;;17.03;100.00;101500.75;5031624;28;20579;-50
2022/10/30 10:34:24;;;;;;;18.00;11.43;;;;;;;16.89;100.00;101512.28;5036980;28;20203;-48
2022/10/30 10:37:00;;;;;;;22.25;11.70;;;;;;;16.99;100.00;101509.97;5038077;28;20225;-48
2022/10/30 10:39:35;;;;;;;24.05;12.18;;;;;;;17.09;100.00;101508.50;5029203;28;20281;-49
2022/10/30 10:42:23;;;;;;;18.52;11.55;;;;;;;16.99;100.00;101523.53;5033152;28;20639;-48
2022/10/30 10:45:11;;;;;;;22.73;11.05;;;;;;;17.07;100.00;101521.25;5035511;28;20307;-48
2022/10/30 10:48:06;;;;;;;21.35;11.20;;;;;;;17.16;100.00;101517.16;5040344;28;20630;-47
2022/10/30 10:50:55;;;;;;;24.50;11.82;;;;;;;17.11;100.00;101511.13;5028757;28;20280;-46
2022/10/30 10:53:47;;;;;;;22.95;11.68;;;;;;;17.24;100.00;101516.75;5032957;28;20385;-47
2022/10/30 10:56:13;;;;;;;21.40;12.68;;;;;;;17.18;100.00;101509.81;5038980;28;20194;-48
2022/10/30 10:58:48;;;;;;;18.40;11.38;;;;;;;17.34;100.00;101511.69;5038826;28;20549;-47
2022/10/30 11:01:20;;;;;;;26.55;12.25;;;;;;;17.32;100.00;101503.66;5039314;28;20187;-48
2022/10/30 11:03:56;;;;;;;23.58;12.50;;;;;;;17.50;100.00;101507.19;5039298;28;20225;-47
2022/10/30 11:06:26;;;;;;;23.77;12.25;;;;;;;17.41;100.00;101505.84;5038659;28;20190;-47
2022/10/30 11:09:15;;;;;;;20.80;11.75;;;;;;;17.49;100.00;101508.13;5044339;28;20188;-48
2022/10/30 11:11:42;;;;;;;19.38;11.85;;;;;;;17.34;100.00;101495.44;5040647;28;20274;-47
2022/10/30 11:14:19;;;;;;;20.50;12.38;;;;;;;17.24;100.00;101504.06;5039088;28;20210;-46
2022/10/30 11:17:14;;;;;;;23.33;11.95;;;;;;;17.21;100.00;101501.56;5042001;28;20732;-47
2022/10/30 11:19:39;;;;;;;22.77;12.25;;;;;;;17.24;100.00;101498.66;5000856;28;20278;-48
2022/10/30 11:22:28;;;;;;;22.45;12.13;;;;;;;17.42;100.00;101499.47;5048717;28;20275;-46
2022/10/30 11:24:53;;;;;;;19.42;12.23;;;;;;;17.46;100.00;101492.91;5047278;28;20261;-47
2022/10/30 11:27:22;;;;;;;22.92;12.70;;;;;;;17.55;100.00;101494.22;5041695;28;20200;-48